• Join FlightAware (Why Join?)
  • Login
  • US Flag 
09:27AM EDT


 

Airport Tracker/Info


-or-


 

Live Flight TrackerFlight Track Log ✈ UAL203 ✈ 08-May-2013 ✈ KRSW - KORD

Flight Track Log - Related Links

Times and Time Zones

All times are in EDT time to prevent confusion due to time zone crossing. See the UAL203 flight status page for this flight to view local times or setup timezone preferences in your user account.

Time Position Orientation Groundspeed Altitude Reporting Facility
EDT Latitude Longitude Course Direction KTS MPH feet Rate Location/Type
06:46AM 26.7283 -81.7197 356° North 294 338 7,800  Level Miami Center
06:47AM 26.8075 -81.7253 356° North 294 338 10,900 2,460 Climbing Miami Center
06:48AM 26.8969 -81.7336 355° North 301 346 12,800 2,220 Climbing Miami Center
06:49AM 26.9947 -81.7447 354° North 326 375 15,400 2,940 Climbing Miami Center
06:50AM 27.0939 -81.7675 348° North 354 407 18,700 2,760 Climbing Miami Center
06:51AM 27.1911 -81.7997 344° North 354 407 21,000 2,340 Climbing Miami Center
06:52AM 27.3006 -81.8347 344° North 359 413 23,400 1,800 Climbing Miami Center
06:53AM 27.4014 -81.8719 342° North 371 427 24,600 1,320 Climbing Miami Center
06:54AM 27.5067 -81.9092 343° North 389 448 26,100 1,320 Climbing Miami Center
06:56AM 27.7544 -81.9969 343° North 418 481 29,000 1,200 Climbing Jacksonville Center
06:57AM 27.8756 -82.0122 354° North 430 495 30,200 1,140 Climbing Jacksonville Center
06:58AM 28.0011 -82.0347 351° North 440 506 31,300 1,200 Climbing Jacksonville Center
06:59AM 28.1119 -82.0925 335° Northwest 440 506 32,700 1,380 Climbing Jacksonville Center
07:00AM 28.2147 -82.1578 331° Northwest 432 497 34,100 1,200 Climbing Jacksonville Center
07:01AM 28.3194 -82.2253 330° Northwest 432 497 35,100 900 Climbing Jacksonville Center
07:02AM 28.4239 -82.2931 330° Northwest 432 497 35,900 420 Climbing Jacksonville Center
07:03AM 28.5264 -82.3561 332° Northwest 427 491 36,000  Climbing Jacksonville Center
07:04AM 28.6311 -82.4242 330° Northwest 427 491 36,000  Level Jacksonville Center
07:05AM 28.7294 -82.4878 330° Northwest 421 484 36,000 -60 Level Jacksonville Center
07:06AM 28.8319 -82.5514 331° Northwest 421 484 35,900  Descending Jacksonville Center
07:07AM 28.9344 -82.6175 331° Northwest 421 484 36,000  Climbing Jacksonville Center
07:08AM 29.0347 -82.6836 330° Northwest 421 484 36,000  Level Jacksonville Center
07:09AM 29.1392 -82.7500 331° Northwest 426 490 36,000  Level Jacksonville Center
07:10AM 29.2436 -82.8164 331° Northwest 426 490 36,000  Level Jacksonville Center
07:11AM 29.3436 -82.8831 330° Northwest 426 490 36,000  Level Jacksonville Center
07:12AM 29.4439 -82.9497 330° Northwest 426 490 36,000  Level Jacksonville Center
07:13AM 29.5483 -83.0167 331° Northwest 426 490 36,000 -60 Level Jacksonville Center
07:14AM 29.6506 -83.0742 334° Northwest 420 483 35,900  Descending Jacksonville Center
07:15AM 29.7611 -83.1247 338° Northwest 409 471 36,000  Climbing Jacksonville Center
07:16AM 29.8675 -83.1753 338° Northwest 409 471 35,900  Descending Jacksonville Center
07:17AM 29.9781 -83.2258 340° North 415 478 36,000  Climbing Jacksonville Center
07:18AM 30.0947 -83.2792 338° Northwest 415 478 36,000  Level Jacksonville Center
07:19AM 30.2031 -83.3300 338° Northwest 415 478 36,000  Level Jacksonville Center
07:20AM 30.3094 -83.3811 337° Northwest 415 478 36,000  Level Jacksonville Center
07:21AM 30.4178 -83.4322 338° Northwest 415 478 36,000  Level Jacksonville Center
07:22AM 30.5261 -83.4811 339° North 415 478 36,000 -60 Level Jacksonville Center
07:23AM 30.6325 -83.5300 338° Northwest 415 478 35,900  Descending Jacksonville Center
07:24AM 30.7261 -83.5789 336° Northwest 410 472 36,000  Climbing Jacksonville Center
07:25AM 30.8322 -83.6306 337° Northwest 410 472 36,000  Level Jacksonville Center
07:26AM 30.9364 -83.6772 339° North 410 472 36,000  Level Jacksonville Center
07:27AM 31.0447 -83.7292 338° Northwest 415 478 36,000  Level Jacksonville Center
07:29AM 31.2183 -83.8156 337° Northwest 420 483 36,000  Level Atlanta Center
07:30AM 31.3269 -83.8664 338° Northwest 415 478 36,000  Level Atlanta Center
07:31AM 31.4356 -83.9172 338° Northwest 415 478 36,000  Level Atlanta Center
07:32AM 31.5483 -83.9658 340° North 415 478 36,000  Level Atlanta Center
07:33AM 31.6547 -83.9925 348° North 420 483 36,000  Level Atlanta Center
07:34AM 31.7781 -84.0194 349° North 431 496 36,100  Climbing Atlanta Center
07:35AM 31.8969 -84.0436 350° North 437 503 36,000 -60 Descending Atlanta Center
07:36AM 32.0181 -84.0683 350° North 437 503 36,000  Level Atlanta Center
07:37AM 32.1347 -84.0953 349° North 431 496 36,000  Level Atlanta Center
07:38AM 32.2539 -84.1222 349° North 431 496 36,000  Level Atlanta Center
07:39AM 32.3728 -84.1494 349° North 431 496 36,000  Level Atlanta Center
07:40AM 32.4917 -84.1767 349° North 431 496 36,000  Level Atlanta Center
07:41AM 32.6106 -84.2017 350° North 431 496 36,000  Level Atlanta Center
07:42AM 32.7317 -84.2289 349° North 431 496 36,000  Level Atlanta Center
07:43AM 32.8631 -84.2589 349° North 431 496 36,000  Level Atlanta Center
07:44AM 32.9819 -84.2914 347° North 437 503 36,100  Climbing Atlanta Center
07:45AM 33.0989 -84.3167 350° North 432 497 36,000 -60 Descending Atlanta Center
07:46AM 33.2136 -84.3417 350° North 426 490 36,000  Level Atlanta Center
07:47AM 33.3347 -84.3694 349° North 426 490 36,000  Level Atlanta Center
07:48AM 33.4514 -84.3972 349° North 425 489 36,000  Level Atlanta Center
07:49AM 33.5558 -84.4203 350° North 431 496 36,000  Level Atlanta Center
07:50AM 33.6831 -84.4533 348° North 425 489 36,100  Climbing Atlanta Center
07:51AM 33.7933 -84.4786 349° North 430 495 36,000 -60 Descending Atlanta Center
07:52AM 33.9039 -84.5044 349° North 425 489 36,000  Level Atlanta Center
07:53AM 34.0333 -84.5375 348° North 430 495 36,000  Level Atlanta Center
07:54AM 34.1542 -84.5633 350° North 432 497 36,000  Level Atlanta Center
07:55AM 34.2711 -84.5917 349° North 432 497 36,000  Level Atlanta Center
07:56AM 34.3878 -84.6025 356° North 426 490 36,000  Level Atlanta Center
07:57AM 34.4942 -84.6133 355° North 426 490 36,000  Level Atlanta Center
07:58AM 34.6153 -84.6219 357° North 426 490 36,100  Climbing Atlanta Center
07:59AM 34.7425 -84.6378 354° North 418 481 36,000 -60 Descending Atlanta Center
08:00AM 34.8614 -84.6464 357° North 418 481 36,000  Level Atlanta Center
08:01AM 34.9803 -84.6572 356° North 423 487 36,000  Level Atlanta Center
08:02AM 35.0992 -84.6658 357° North 423 487 36,000  Level Atlanta Center
08:03AM 35.2181 -84.6769 356° North 423 487 36,100  Climbing Atlanta Center
08:04AM 35.3347 -84.6853 357° North 423 487 36,000 -60 Descending Atlanta Center
08:05AM 35.4536 -84.6967 356° North 423 487 36,000  Level Atlanta Center
08:06AM 35.5725 -84.7078 356° North 423 487 36,000 300 Level Atlanta Center
08:07AM 35.6914 -84.7164 357° North 423 487 36,600 600 Climbing Atlanta Center
08:08AM 35.8103 -84.7250 357° North 423 487 37,200 420 Climbing Atlanta Center
08:10AM 36.0631 -84.7483 356° North 419 482 38,000 240 Climbing Indianapolis Center
08:11AM 36.1792 -84.7592 356° North 420 483 38,000  Level Indianapolis Center
08:12AM 36.2958 -84.7689 356° North 421 484 38,000  Level Indianapolis Center
08:13AM 36.4150 -84.7672 North 426 490 38,000  Level Indianapolis Center
08:14AM 36.5578 -84.7625 North 429 494 38,000  Level Indianapolis Center
08:15AM 36.6769 -84.7603 North 428 493 38,000  Level Indianapolis Center
08:16AM 36.7969 -84.7578 North 432 497 38,000  Level Indianapolis Center
08:17AM 36.9167 -84.7550 North 429 494 38,000  Level Indianapolis Center
08:18AM 37.0367 -84.7525 North 431 496 38,000  Level Indianapolis Center
08:19AM 37.1572 -84.7497 North 433 498 38,000  Level Indianapolis Center
08:20AM 37.2797 -84.7461 North 439 505 38,000  Level Indianapolis Center
08:21AM 37.4000 -84.7444 North 434 499 38,000  Level Indianapolis Center
08:22AM 37.5442 -84.7400 North 438 504 38,000  Level Indianapolis Center
08:23AM 37.6664 -84.7383 North 439 505 38,000  Level Indianapolis Center
08:24AM 37.7886 -84.7353 North 439 505 38,000  Level Indianapolis Center
08:25AM 37.9117 -84.7317 North 439 505 38,000  Level Indianapolis Center
08:26AM 38.0342 -84.7292 North 440 506 38,000 -420 Level Indianapolis Center
08:28AM 38.1556 -84.7244 North 436 502 37,200 -960 Descending Indianapolis Center
08:29AM 38.2692 -84.7214 North 410 472 36,100 -600 Descending Indianapolis Center
08:30AM 38.3781 -84.7181 North 391 450 36,000 -60 Descending Indianapolis Center
08:31AM 38.5078 -84.7342 354° North 399 459 36,000  Level Indianapolis Center
08:32AM 38.6153 -84.7825 341° North 407 468 36,000 -540 Level Indianapolis Center
08:33AM 38.7064 -84.8269 339° North 408 470 35,000 -1,620 Descending Indianapolis Center
08:34AM 38.8353 -84.8864 340° North 410 472 32,700 -2,100 Descending Indianapolis Center
08:35AM 38.9453 -84.9378 340° North 421 484 30,700 -1,980 Descending Indianapolis Center
08:36AM 39.0544 -84.9897 340° North 421 484 28,700 -1,320 Descending Indianapolis Center
08:37AM 39.1639 -85.0400 340° North 419 482 28,000 -360 Descending Indianapolis Center
08:38AM 39.2725 -85.0917 340° North 419 482 28,000  Level Indianapolis Center
08:39AM 39.3803 -85.1428 340° North 417 480 28,000  Level Indianapolis Center
08:40AM 39.4889 -85.1947 340° North 417 480 28,000  Level Indianapolis Center
08:41AM 39.6211 -85.2575 340° North 424 488 28,000 -180 Level Indianapolis Center
08:42AM 39.7292 -85.3083 340° North 418 481 27,700 -600 Descending Indianapolis Center
08:43AM 39.8364 -85.3600 340° North 415 478 26,800 -840 Descending Indianapolis Center
08:44AM 39.9467 -85.4139 339° North 424 488 26,000 -420 Descending Indianapolis Center
08:45AM 40.0558 -85.4658 340° North 422 486 26,000  Level Indianapolis Center
08:46AM 40.1864 -85.5292 340° North 421 484 26,000  Level Indianapolis Center
08:47AM 40.2736 -85.5703 340° North 422 486 26,000 -600 Level Chicago Center
08:48AM 40.4047 -85.6347 339° North 422 486 24,900 -1,020 Descending Chicago Center
08:49AM 40.4869 -85.7381 316° Northwest 415 478 24,000 -480 Descending Chicago Center
08:50AM 40.5589 -85.8569 309° West 418 481 24,000  Level Chicago Center
08:52AM 40.7158 -86.1131 309° West 413 475 24,000 -420 Level Chicago Center
08:53AM 40.7872 -86.2308 309° West 411 473 22,800 -1,500 Descending Chicago Center
08:54AM 40.8578 -86.3481 309° West 408 470 21,000 -900 Descending Chicago Center
08:55AM 40.9264 -86.4625 308° West 400 460 21,000  Level Chicago Center
08:56AM 40.9961 -86.5775 309° West 400 460 21,000 -60 Level Chicago Center
08:57AM 41.0667 -86.6928 309° West 403 464 20,900 -1,140 Descending Chicago Center
08:58AM 41.1400 -86.8161 308° West 392 451 18,700 -1,560 Descending Chicago Center
08:59AM 41.2072 -86.9275 309° West 389 448 17,700 -1,740 Descending Chicago Center
09:00AM 41.2706 -87.0353 308° West 375 432 15,200 -2,160 Descending Chicago Center
09:01AM 41.3453 -87.1622 308° West 365 420 13,300 -1,560 Descending Chicago Center
09:02AM 41.4167 -87.2500 317° Northwest 355 409 12,100 -1,200 Descending Chicago TRACON
09:03AM 41.4833 -87.3333 317° Northwest 350 403 11,000 -540 Descending Chicago TRACON
09:05AM 41.5508 -87.4117 319° Northwest 301 346 11,000 -60 Level Chicago Center
09:06AM 41.6022 -87.4686 320° Northwest 243 280 10,900 -780 Descending Chicago Center
09:07AM 41.6517 -87.5211 322° Northwest 194 223 9,500 -1,260 Descending Chicago Center
09:08AM 41.6925 -87.5700 318° Northwest 196 226 8,400 -780 Descending Chicago Center
09:09AM 41.7342 -87.6164 320° Northwest 197 227 8,000 -240 Descending Chicago Center
09:10AM 41.7833 -87.6333 346° North 188 216 8,000 -420 Level Chicago TRACON
09:11AM 41.8500 -87.6333 360° North 214 246 7,200 -1,500 Descending Chicago TRACON
09:12AM 41.9000 -87.6333 360° North 218 251 5,100 -1,740 Descending Chicago TRACON
09:13AM 41.9500 -87.6667 334° Northwest 195 224 3,800 -1,320 Descending Chicago TRACON